createdAt,value
2018-11-02T00:01:56.032Z,92.85
2018-11-02T00:04:24.679Z,92.78
2018-11-02T00:06:53.256Z,92.89
2018-11-02T00:09:21.789Z,92.40
2018-11-02T00:11:50.272Z,92.19
2018-11-02T00:14:18.814Z,92.45
2018-11-02T00:16:47.359Z,91.99
2018-11-02T00:19:15.980Z,92.06
2018-11-02T00:21:44.587Z,92.37
2018-11-02T00:24:13.069Z,92.30
2018-11-02T00:26:41.629Z,92.57
2018-11-02T00:29:10.154Z,92.67
2018-11-02T00:31:38.746Z,92.66
2018-11-02T00:34:07.313Z,92.96
2018-11-02T00:36:35.909Z,92.16
2018-11-02T00:39:05.531Z,92.39
2018-11-02T00:41:34.049Z,92.86
2018-11-02T00:44:02.601Z,92.58
2018-11-02T00:46:31.236Z,92.42
2018-11-02T00:48:59.746Z,92.10
2018-11-02T00:51:28.277Z,92.43
2018-11-02T00:53:56.763Z,92.61
2018-11-02T00:56:25.282Z,92.39
2018-11-02T00:58:53.880Z,92.85
2018-11-02T01:01:22.408Z,92.13
2018-11-02T01:03:51.063Z,92.85
2018-11-02T01:06:19.550Z,92.81
2018-11-02T01:08:48.105Z,92.61
2018-11-02T01:11:16.700Z,92.16
2018-11-02T01:13:45.193Z,92.30
2018-11-02T01:16:13.741Z,91.82
2018-11-02T01:18:42.676Z,92.25
2018-11-02T01:21:11.202Z,91.56
2018-11-02T01:23:39.693Z,92.02
2018-11-02T01:26:08.229Z,92.65
2018-11-02T01:28:36.837Z,92.66
2018-11-02T01:31:05.409Z,93.00
2018-11-02T01:33:39.069Z,92.47
2018-11-02T01:36:09.087Z,91.86
2018-11-02T01:38:37.845Z,92.08
2018-11-02T01:41:06.634Z,91.53
2018-11-02T01:43:35.237Z,91.83
2018-11-02T01:46:03.817Z,92.04
2018-11-02T01:48:32.317Z,91.48
2018-11-02T01:51:00.858Z,91.68
2018-11-02T01:53:29.459Z,91.37
2018-11-02T01:55:58.041Z,91.53
2018-11-02T01:58:26.606Z,91.10
2018-11-02T02:00:55.173Z,90.60
2018-11-02T02:03:23.682Z,90.82
2018-11-02T02:05:52.205Z,91.10
2018-11-02T02:08:20.808Z,90.64
2018-11-02T02:10:49.310Z,90.49
2018-11-02T02:13:17.880Z,90.59
2018-11-02T02:15:46.435Z,90.97
2018-11-02T02:18:15.044Z,91.20
2018-11-02T02:20:43.541Z,91.25
2018-11-02T02:23:12.098Z,90.87
2018-11-02T02:25:40.686Z,91.22
2018-11-02T02:28:09.334Z,90.64
2018-11-02T02:30:37.849Z,90.62
2018-11-02T02:33:06.430Z,90.65
2018-11-02T02:35:34.961Z,90.83
2018-11-02T02:38:03.475Z,90.49
2018-11-02T02:40:32.027Z,90.69
2018-11-02T02:43:00.738Z,90.34
2018-11-02T02:45:29.241Z,90.35
2018-11-02T02:47:57.738Z,90.50
2018-11-02T02:50:26.265Z,89.75
2018-11-02T02:52:54.789Z,89.94
2018-11-02T02:55:23.284Z,89.98
2018-11-02T02:57:51.774Z,89.66
2018-11-02T03:00:20.347Z,89.75
2018-11-02T03:02:48.874Z,90.09
2018-11-02T03:05:17.444Z,89.80
2018-11-02T03:07:45.978Z,89.74
2018-11-02T03:10:14.514Z,89.48
2018-11-02T03:12:43.054Z,89.69
2018-11-02T03:15:11.597Z,89.69
2018-11-02T03:17:40.162Z,89.64
2018-11-02T03:20:09.794Z,90.10
2018-11-02T03:22:38.577Z,89.78
2018-11-02T03:25:07.849Z,89.77
2018-11-02T03:27:36.405Z,90.01
2018-11-02T03:30:05.637Z,90.51
2018-11-02T03:32:34.118Z,89.82
2018-11-02T03:35:02.744Z,90.10
2018-11-02T03:37:31.262Z,89.94
2018-11-02T03:39:59.800Z,90.40
2018-11-02T03:42:28.315Z,91.68
2018-11-02T03:44:56.864Z,92.27
2018-11-02T03:47:25.482Z,92.27
2018-11-02T03:49:54.023Z,92.63
2018-11-02T03:52:22.527Z,92.66
2018-11-02T03:54:51.614Z,92.74
2018-11-02T03:57:20.149Z,92.92
2018-11-02T03:59:48.641Z,92.93
2018-11-02T04:02:17.244Z,92.90
2018-11-02T04:04:45.773Z,92.85
2018-11-02T04:07:14.373Z,92.87
2018-11-02T04:09:43.050Z,93.25
2018-11-02T04:12:11.538Z,93.12
2018-11-02T04:14:40.039Z,93.57
2018-11-02T04:17:08.562Z,93.05
2018-11-02T04:19:37.189Z,92.04
2018-11-02T04:22:05.885Z,92.98
2018-11-02T04:24:34.373Z,92.17
2018-11-02T04:27:02.934Z,92.35
2018-11-02T04:29:31.437Z,91.23
2018-11-02T04:32:00.149Z,90.41
2018-11-02T04:34:28.633Z,91.11
2018-11-02T04:36:57.140Z,91.07
2018-11-02T04:39:25.633Z,90.35
2018-11-02T04:41:54.120Z,90.56
2018-11-02T04:44:22.641Z,91.20
2018-11-02T04:46:51.120Z,91.04
2018-11-02T04:49:19.677Z,90.99
2018-11-02T04:51:48.138Z,90.79
2018-11-02T04:54:16.635Z,91.14
2018-11-02T04:56:45.152Z,91.38
2018-11-02T04:59:13.639Z,91.01
2018-11-02T05:01:42.183Z,90.95
2018-11-02T05:04:10.784Z,91.28
2018-11-02T05:06:39.277Z,91.11
2018-11-02T05:09:08.621Z,91.75
2018-11-02T05:11:37.231Z,91.84
2018-11-02T05:14:06.199Z,92.29
2018-11-02T05:16:34.684Z,92.37
2018-11-02T05:19:03.377Z,92.37
2018-11-02T05:21:31.932Z,92.34
2018-11-02T05:24:00.430Z,92.76
2018-11-02T05:26:28.963Z,93.51
2018-11-02T05:28:57.462Z,93.81
2018-11-02T05:31:26.007Z,93.65
2018-11-02T05:33:54.541Z,93.22
2018-11-02T05:36:23.026Z,94.03
2018-11-02T05:38:51.553Z,94.02
2018-11-02T05:41:20.222Z,93.69
2018-11-02T05:43:48.764Z,93.90
2018-11-02T05:46:17.273Z,93.44
2018-11-02T05:48:45.813Z,93.16
2018-11-02T05:51:14.361Z,92.75
2018-11-02T05:53:42.849Z,92.87
2018-11-02T05:56:11.382Z,92.51
2018-11-02T05:58:39.887Z,92.35
2018-11-02T06:01:08.457Z,92.73
2018-11-02T06:03:37.025Z,92.28
2018-11-02T06:06:06.486Z,93.31
2018-11-02T06:08:35.003Z,93.86
2018-11-02T06:11:03.575Z,94.42
2018-11-02T06:13:32.144Z,94.05
2018-11-02T06:16:00.682Z,93.80
2018-11-02T06:18:29.190Z,93.82
2018-11-02T06:20:57.728Z,94.60
2018-11-02T06:23:26.305Z,94.54
2018-11-02T06:25:54.876Z,94.44
2018-11-02T06:28:23.374Z,94.83
2018-11-02T06:30:51.992Z,94.83
2018-11-02T06:33:20.542Z,94.14
2018-11-02T06:35:49.115Z,94.27
2018-11-02T06:38:17.611Z,94.46
2018-11-02T06:40:46.106Z,94.59
2018-11-02T06:43:14.676Z,94.71
2018-11-02T06:45:43.177Z,94.93
2018-11-02T06:48:11.687Z,94.65
2018-11-02T06:50:40.268Z,95.20
2018-11-02T06:53:08.858Z,94.53
2018-11-02T06:55:37.400Z,94.81
2018-11-02T06:58:06.170Z,95.05
2018-11-02T07:00:34.835Z,94.73
2018-11-02T07:03:03.243Z,94.99
2018-11-02T07:05:31.793Z,95.24
2018-11-02T07:08:00.376Z,95.06
2018-11-02T07:10:28.818Z,94.95
2018-11-02T07:12:57.417Z,94.24
2018-11-02T07:15:25.877Z,94.22
2018-11-02T07:17:54.435Z,94.27
2018-11-02T07:20:22.991Z,94.27
2018-11-02T07:22:51.542Z,94.32
2018-11-02T07:25:20.190Z,93.73
2018-11-02T07:27:48.649Z,93.81
2018-11-02T07:30:17.186Z,93.63
2018-11-02T07:32:45.757Z,93.19
2018-11-02T07:35:14.301Z,92.99
2018-11-02T07:37:42.864Z,93.39
2018-11-02T07:40:12.097Z,93.38
2018-11-02T07:42:40.850Z,93.13
2018-11-02T07:45:09.928Z,92.64
2018-11-02T07:47:38.596Z,92.20
2018-11-02T07:50:09.198Z,91.32
2018-11-02T07:52:37.769Z,90.86
2018-11-02T07:55:08.121Z,90.47
2018-11-02T07:57:36.871Z,90.58
2018-11-02T08:00:05.580Z,90.76
2018-11-02T08:02:34.056Z,91.27
2018-11-02T08:05:02.563Z,90.93
2018-11-02T08:07:31.153Z,90.25
2018-11-02T08:09:59.694Z,90.87
2018-11-02T08:12:28.238Z,91.69
2018-11-02T08:14:56.810Z,91.13
2018-11-02T08:17:25.375Z,91.14
2018-11-02T08:19:53.947Z,90.29
2018-11-02T08:22:22.463Z,89.98
2018-11-02T08:24:51.001Z,90.27
2018-11-02T08:27:19.473Z,90.16
2018-11-02T08:29:47.998Z,91.16
2018-11-02T08:32:16.654Z,91.24
2018-11-02T08:34:45.114Z,90.89
2018-11-02T08:37:13.609Z,91.67
2018-11-02T08:39:42.100Z,91.71
2018-11-02T08:42:10.771Z,91.03
2018-11-02T08:44:39.304Z,89.71
2018-11-02T08:47:07.882Z,89.51
2018-11-02T08:49:36.374Z,88.89
2018-11-02T08:52:05.262Z,88.49
2018-11-02T08:54:33.855Z,88.13
2018-11-02T08:57:02.359Z,86.73
2018-11-02T08:59:31.036Z,87.64
2018-11-02T09:01:59.674Z,87.50
2018-11-02T09:04:28.359Z,86.74
2018-11-02T09:06:56.869Z,86.34
2018-11-02T09:09:25.362Z,86.46
2018-11-02T09:11:54.013Z,86.66
2018-11-02T09:14:22.486Z,87.03
2018-11-02T09:16:51.071Z,86.96
2018-11-02T09:19:19.713Z,85.51
2018-11-02T09:21:48.124Z,84.80
2018-11-02T09:24:16.627Z,84.59
2018-11-02T09:26:45.197Z,84.29
2018-11-02T09:29:13.684Z,83.99
2018-11-02T09:31:42.225Z,83.55
2018-11-02T09:34:10.737Z,84.33
2018-11-02T09:36:39.367Z,84.13
2018-11-02T09:39:10.010Z,83.51
2018-11-02T09:41:38.579Z,83.66
2018-11-02T09:44:07.077Z,83.56
2018-11-02T09:46:35.848Z,83.08
2018-11-02T09:49:04.402Z,82.01
2018-11-02T09:51:33.038Z,82.40
2018-11-02T09:54:01.601Z,83.15
2018-11-02T09:56:30.111Z,82.49
2018-11-02T09:58:58.675Z,82.04
2018-11-02T10:01:27.290Z,81.88
2018-11-02T10:03:55.783Z,82.13
2018-11-02T10:06:24.369Z,81.80
2018-11-02T10:08:52.943Z,82.12
2018-11-02T10:11:21.477Z,83.18
2018-11-02T10:13:50.030Z,83.12
2018-11-02T10:16:18.631Z,83.48
2018-11-02T10:18:47.141Z,83.74
2018-11-02T10:21:15.748Z,83.93
2018-11-02T10:23:44.344Z,84.02
2018-11-02T10:26:12.885Z,82.79
2018-11-02T10:28:41.484Z,82.77
2018-11-02T10:31:10.099Z,79.50
2018-11-02T10:33:38.626Z,80.84
2018-11-02T10:36:07.367Z,79.91
2018-11-02T10:38:36.037Z,80.15
2018-11-02T10:41:05.582Z,79.75
2018-11-02T10:43:34.363Z,80.05
2018-11-02T10:46:03.051Z,80.24
2018-11-02T10:48:31.681Z,80.64
2018-11-02T10:51:00.216Z,79.83
2018-11-02T10:53:28.809Z,80.27
2018-11-02T10:55:57.310Z,77.51
2018-11-02T10:58:25.853Z,78.20
2018-11-02T11:00:59.673Z,76.68
2018-11-02T11:03:28.079Z,76.85
2018-11-02T11:05:56.618Z,76.36
2018-11-02T11:08:25.219Z,75.69
2018-11-02T11:10:53.781Z,76.00
2018-11-02T11:13:22.683Z,75.93
2018-11-02T11:15:50.872Z,76.12
2018-11-02T11:18:19.372Z,75.33
2018-11-02T11:20:47.911Z,74.03
2018-11-02T11:23:16.483Z,73.23
2018-11-02T11:25:44.969Z,72.17
2018-11-02T11:28:13.553Z,72.39
2018-11-02T11:30:42.091Z,70.90
2018-11-02T11:33:10.642Z,69.34
2018-11-02T11:35:39.241Z,69.66
2018-11-02T11:38:07.898Z,70.29
2018-11-02T11:40:36.493Z,69.66
2018-11-02T11:43:05.041Z,71.04
2018-11-02T11:45:33.570Z,71.18
2018-11-02T11:48:02.103Z,71.59
2018-11-02T11:50:30.638Z,72.21
2018-11-02T11:52:59.213Z,72.18
2018-11-02T11:55:27.799Z,72.37
2018-11-02T11:57:56.360Z,71.72
2018-11-02T12:00:24.921Z,70.68
2018-11-02T12:02:53.882Z,71.05
2018-11-02T12:05:23.457Z,71.33
2018-11-02T12:07:52.010Z,69.80
2018-11-02T12:10:21.994Z,70.11
2018-11-02T12:12:50.482Z,70.42
2018-11-02T12:15:20.236Z,70.60
2018-11-02T12:17:49.209Z,70.37
2018-11-02T12:20:19.173Z,70.99
2018-11-02T12:22:48.397Z,70.41
2018-11-02T12:25:16.982Z,70.64
2018-11-02T12:27:45.594Z,71.77
2018-11-02T12:30:15.398Z,71.21
2018-11-02T12:32:43.941Z,72.04
2018-11-02T12:35:13.650Z,71.96
2018-11-02T12:37:42.269Z,72.05
2018-11-02T12:40:12.925Z,72.22
2018-11-02T12:42:41.904Z,71.82
2018-11-02T12:45:13.081Z,71.63
2018-11-02T12:47:42.007Z,71.76
2018-11-02T12:50:13.208Z,71.18
2018-11-02T12:52:41.920Z,69.37
2018-11-02T12:55:11.098Z,69.09
2018-11-02T12:57:39.819Z,68.85
2018-11-02T13:00:10.804Z,68.54
2018-11-02T13:02:39.505Z,68.34
2018-11-02T13:05:08.921Z,69.08
2018-11-02T13:07:37.810Z,69.34
2018-11-02T13:10:06.705Z,68.23
2018-11-02T13:12:35.281Z,68.98
2018-11-02T13:15:03.882Z,68.85
2018-11-02T13:17:32.517Z,68.28
2018-11-02T13:20:01.067Z,69.62
2018-11-02T13:22:29.557Z,69.69
2018-11-02T13:24:58.058Z,70.72
2018-11-02T13:27:26.624Z,69.21
2018-11-02T13:29:55.210Z,67.92
2018-11-02T13:32:23.831Z,65.22
2018-11-02T13:34:52.472Z,66.63
2018-11-02T13:37:21.293Z,66.86
2018-11-02T13:39:49.933Z,69.47
2018-11-02T13:42:18.481Z,70.86
2018-11-02T13:44:47.042Z,73.72
2018-11-02T13:47:15.617Z,76.54
2018-11-02T13:49:44.145Z,77.64
2018-11-02T13:52:12.785Z,78.75
2018-11-02T13:54:41.295Z,80.31
2018-11-02T13:57:09.878Z,81.08
2018-11-02T13:59:38.598Z,81.56
2018-11-02T14:02:07.937Z,81.04
2018-11-02T14:04:36.434Z,81.42
2018-11-02T14:07:04.987Z,81.62
2018-11-02T14:09:33.523Z,80.66
2018-11-02T14:12:02.074Z,81.19
2018-11-02T14:14:30.722Z,81.85
2018-11-02T14:16:59.258Z,81.82
2018-11-02T14:19:27.734Z,80.72
2018-11-02T14:21:56.376Z,82.22
2018-11-02T14:24:24.933Z,81.81
2018-11-02T14:26:53.439Z,81.14
2018-11-02T14:29:22.094Z,80.36
2018-11-02T14:31:50.635Z,80.46
2018-11-02T14:34:19.250Z,81.83
2018-11-02T14:36:47.916Z,81.79
2018-11-02T14:39:16.449Z,82.37
2018-11-02T14:41:45.368Z,82.36
2018-11-02T14:44:13.929Z,82.53
2018-11-02T14:46:42.649Z,82.96
2018-11-02T14:49:11.138Z,82.86
2018-11-02T14:51:39.818Z,82.93
2018-11-02T14:54:08.345Z,82.83
2018-11-02T14:56:36.925Z,82.12
2018-11-02T14:59:05.530Z,82.49
2018-11-02T15:01:34.190Z,82.08
2018-11-02T15:04:03.136Z,82.42
2018-11-02T15:06:31.642Z,82.39
2018-11-02T15:09:00.190Z,82.47
2018-11-02T15:11:28.825Z,83.11
2018-11-02T15:13:57.223Z,83.46
2018-11-02T15:16:25.908Z,83.99
2018-11-02T15:18:54.483Z,84.49
2018-11-02T15:21:22.989Z,85.40
2018-11-02T15:23:51.591Z,86.84
2018-11-02T15:26:20.177Z,87.50
2018-11-02T15:28:48.657Z,87.95
2018-11-02T15:31:17.133Z,88.29
2018-11-02T15:33:45.700Z,88.39
2018-11-02T15:36:14.198Z,88.71
2018-11-02T15:38:42.742Z,88.75
2018-11-02T15:41:11.364Z,89.47
2018-11-02T15:43:39.869Z,89.52
2018-11-02T15:46:08.407Z,89.87
2018-11-02T15:48:36.906Z,90.19
2018-11-02T15:51:05.643Z,90.09
2018-11-02T15:53:34.171Z,90.83
2018-11-02T15:56:02.746Z,91.71
2018-11-02T15:58:31.357Z,92.03
2018-11-02T16:00:59.895Z,92.13
2018-11-02T16:03:28.531Z,92.20
2018-11-02T16:05:57.055Z,91.60
2018-11-02T16:08:25.540Z,91.67
2018-11-02T16:10:54.110Z,91.71
2018-11-02T16:13:22.676Z,91.87
2018-11-02T16:15:51.381Z,91.86
2018-11-02T16:18:19.976Z,91.70
2018-11-02T16:20:48.511Z,92.24
2018-11-02T16:23:17.065Z,92.26
2018-11-02T16:25:45.613Z,92.72
2018-11-02T16:28:14.086Z,92.46
2018-11-02T16:30:42.638Z,93.49
2018-11-02T16:33:11.174Z,93.45
2018-11-02T16:35:39.713Z,93.68
2018-11-02T16:38:08.208Z,93.49
2018-11-02T16:40:36.746Z,93.48
2018-11-02T16:43:05.453Z,93.52
2018-11-02T16:45:34.027Z,92.66
2018-11-02T16:48:02.674Z,92.97
2018-11-02T16:50:31.245Z,92.71
2018-11-02T16:52:59.740Z,92.36
2018-11-02T16:55:28.285Z,92.35
2018-11-02T16:57:57.015Z,92.28
2018-11-02T17:00:25.505Z,92.04
2018-11-02T17:02:54.088Z,92.37
2018-11-02T17:05:22.613Z,92.29
2018-11-02T17:07:51.125Z,91.80
2018-11-02T17:10:19.835Z,91.97
2018-11-02T17:12:48.387Z,92.62
2018-11-02T17:15:16.885Z,92.29
2018-11-02T17:17:45.489Z,91.99
2018-11-02T17:20:15.205Z,91.79
2018-11-02T17:22:43.706Z,92.04
2018-11-02T17:25:12.670Z,92.36
2018-11-02T17:27:41.326Z,92.25
2018-11-02T17:30:12.722Z,92.53
2018-11-02T17:32:41.376Z,92.40
2018-11-02T17:35:10.467Z,92.29
2018-11-02T17:37:38.976Z,92.24
2018-11-02T17:40:10.131Z,91.63
2018-11-02T17:42:38.667Z,91.87
2018-11-02T17:45:09.028Z,91.70
2018-11-02T17:47:38.729Z,91.59
2018-11-02T17:50:08.379Z,91.47
2018-11-02T17:52:36.938Z,91.32
2018-11-02T17:55:05.606Z,91.43
2018-11-02T17:57:34.220Z,91.41
2018-11-02T18:00:02.783Z,91.24
2018-11-02T18:02:37.787Z,91.07
2018-11-02T18:05:06.879Z,91.10
2018-11-02T18:07:35.509Z,91.29
2018-11-02T18:10:04.240Z,91.75
2018-11-02T18:12:32.749Z,91.36
2018-11-02T18:15:01.276Z,91.46
2018-11-02T18:17:29.793Z,91.30
2018-11-02T18:19:58.314Z,91.05
2018-11-02T18:22:26.899Z,91.29
2018-11-02T18:24:55.404Z,91.02
2018-11-02T18:27:23.945Z,90.85
2018-11-02T18:29:52.570Z,90.96
2018-11-02T18:32:21.119Z,91.06
2018-11-02T18:34:49.791Z,91.26
2018-11-02T18:37:18.306Z,91.33
2018-11-02T18:39:46.861Z,91.01
2018-11-02T18:42:15.453Z,91.07
2018-11-02T18:44:44.042Z,90.64
2018-11-02T18:47:12.607Z,90.61
2018-11-02T18:49:41.152Z,91.99
2018-11-02T18:52:09.749Z,92.96
2018-11-02T18:54:38.365Z,92.86
2018-11-02T18:57:07.082Z,92.85
2018-11-02T18:59:35.630Z,92.89
2018-11-02T19:02:04.233Z,92.26
2018-11-02T19:04:33.169Z,92.34
2018-11-02T19:07:02.609Z,92.16
2018-11-02T19:09:31.769Z,91.96
2018-11-02T19:12:00.583Z,91.81
2018-11-02T19:14:29.184Z,92.03
2018-11-02T19:16:57.930Z,91.83
2018-11-02T19:19:26.438Z,91.72
2018-11-02T19:21:55.097Z,91.64
2018-11-02T19:24:24.573Z,91.57
2018-11-02T19:26:53.225Z,91.99
2018-11-02T19:29:21.766Z,91.59
2018-11-02T19:31:50.254Z,92.16
2018-11-02T19:34:18.964Z,91.95
2018-11-02T19:36:47.456Z,92.16
2018-11-02T19:39:16.130Z,92.38
2018-11-02T19:41:44.958Z,92.52
2018-11-02T19:44:13.534Z,92.94
2018-11-02T19:46:42.116Z,92.56
2018-11-02T19:49:10.804Z,93.05
2018-11-02T19:51:39.303Z,93.26
2018-11-02T19:54:07.942Z,93.08
2018-11-02T19:56:36.537Z,92.79
2018-11-02T19:59:05.127Z,92.73
2018-11-02T20:01:33.731Z,92.18
2018-11-02T20:04:02.233Z,92.15
2018-11-02T20:06:30.977Z,92.09
2018-11-02T20:08:59.634Z,91.95
2018-11-02T20:11:28.150Z,91.72
2018-11-02T20:13:56.873Z,92.09
2018-11-02T20:16:25.453Z,91.76
2018-11-02T20:18:54.135Z,91.81
2018-11-02T20:21:22.637Z,92.50
2018-11-02T20:23:51.196Z,92.88
2018-11-02T20:26:19.986Z,92.49
2018-11-02T20:28:48.513Z,93.09
2018-11-02T20:31:17.119Z,93.58
2018-11-02T20:33:45.862Z,93.37
2018-11-02T20:36:14.526Z,93.53
2018-11-02T20:38:43.078Z,93.70
2018-11-02T20:41:11.686Z,93.50
2018-11-02T20:43:40.223Z,93.70
2018-11-02T20:46:08.824Z,93.73
2018-11-02T20:48:37.413Z,94.65
2018-11-02T20:51:06.549Z,95.00
2018-11-02T20:53:35.100Z,95.43
2018-11-02T20:56:03.719Z,94.71
2018-11-02T20:58:32.362Z,94.90
2018-11-02T21:01:01.009Z,94.62
2018-11-02T21:03:29.614Z,95.02
2018-11-02T21:05:58.165Z,94.37
2018-11-02T21:08:26.857Z,94.42
2018-11-02T21:10:55.373Z,94.20
2018-11-02T21:13:24.017Z,93.95
2018-11-02T21:15:52.749Z,93.67
2018-11-02T21:18:21.290Z,92.86
2018-11-02T21:20:49.894Z,92.12
2018-11-02T21:23:18.428Z,92.17
2018-11-02T21:25:46.990Z,91.96
2018-11-02T21:28:15.623Z,92.41
2018-11-02T21:30:44.153Z,91.97
2018-11-02T21:33:12.963Z,92.19
2018-11-02T21:35:41.469Z,92.92
2018-11-02T21:38:10.092Z,92.73
2018-11-02T21:40:38.561Z,93.04
2018-11-02T21:43:07.355Z,92.92
2018-11-02T21:45:36.088Z,93.00
2018-11-02T21:48:04.689Z,93.07
2018-11-02T21:50:33.494Z,93.24
2018-11-02T21:53:02.507Z,92.76
2018-11-02T21:55:31.057Z,92.59
2018-11-02T21:57:59.707Z,92.43
2018-11-02T22:00:28.260Z,92.47
2018-11-02T22:02:56.931Z,92.86
2018-11-02T22:05:25.445Z,92.57
2018-11-02T22:07:54.046Z,92.99
2018-11-02T22:10:22.561Z,93.18
2018-11-02T22:12:51.117Z,92.54
2018-11-02T22:15:19.734Z,92.71
2018-11-02T22:17:48.287Z,92.12
2018-11-02T22:20:17.005Z,91.94
2018-11-02T22:22:45.696Z,92.84
2018-11-02T22:25:14.996Z,92.47
2018-11-02T22:27:43.844Z,93.59
2018-11-02T22:30:14.903Z,94.10
2018-11-02T22:32:43.389Z,94.53
2018-11-02T22:35:12.638Z,94.73
2018-11-02T22:37:41.333Z,95.76
2018-11-02T22:40:11.134Z,96.06
2018-11-02T22:42:40.030Z,95.52
2018-11-02T22:45:09.223Z,95.33
2018-11-02T22:47:37.773Z,95.96
2018-11-02T22:50:06.993Z,95.83
2018-11-02T22:52:35.698Z,95.78
2018-11-02T22:55:04.194Z,95.23
2018-11-02T22:57:32.689Z,95.97
2018-11-02T23:00:01.246Z,95.87
2018-11-02T23:02:32.709Z,95.31
2018-11-02T23:05:01.266Z,96.02
2018-11-02T23:07:29.876Z,95.87
2018-11-02T23:09:58.437Z,96.04
2018-11-02T23:12:26.985Z,95.20
2018-11-02T23:14:55.465Z,94.80
2018-11-02T23:17:24.034Z,94.83
2018-11-02T23:19:52.564Z,95.15
2018-11-02T23:22:21.515Z,94.55
2018-11-02T23:24:50.436Z,94.37
2018-11-02T23:27:18.979Z,94.92
2018-11-02T23:29:47.628Z,94.69
2018-11-02T23:32:16.417Z,94.71
2018-11-02T23:34:45.010Z,94.41
2018-11-02T23:37:13.597Z,93.88
2018-11-02T23:39:42.154Z,94.12
2018-11-02T23:42:10.742Z,94.16
2018-11-02T23:44:39.253Z,94.19
2018-11-02T23:47:07.785Z,94.42
2018-11-02T23:49:36.350Z,93.92
2018-11-02T23:52:04.944Z,94.31
2018-11-02T23:54:33.465Z,94.12
2018-11-02T23:57:02.023Z,93.79
2018-11-02T23:59:30.705Z,93.10
